sensor_id;sensor_type;location;lat;lon;timestamp;P1;durP1;ratioP1;P2;durP2;ratioP2
24619;SDS011;12763;55.802;37.404;2023-07-29T00:00:35;6.35;;;2.58;;
24619;SDS011;12763;55.802;37.404;2023-07-29T00:03:01;4.00;;;3.00;;
24619;SDS011;12763;55.802;37.404;2023-07-29T00:05:26;6.57;;;2.97;;
24619;SDS011;12763;55.802;37.404;2023-07-29T00:07:52;3.95;;;2.97;;
24619;SDS011;12763;55.802;37.404;2023-07-29T00:10:18;3.72;;;2.83;;
24619;SDS011;12763;55.802;37.404;2023-07-29T00:12:45;3.75;;;2.47;;
24619;SDS011;12763;55.802;37.404;2023-07-29T00:15:11;4.82;;;2.97;;
24619;SDS011;12763;55.802;37.404;2023-07-29T00:17:37;5.40;;;2.75;;
24619;SDS011;12763;55.802;37.404;2023-07-29T00:20:03;4.63;;;3.00;;
24619;SDS011;12763;55.802;37.404;2023-07-29T00:22:30;7.30;;;3.30;;
24619;SDS011;12763;55.802;37.404;2023-07-29T00:24:56;4.28;;;3.20;;
24619;SDS011;12763;55.802;37.404;2023-07-29T00:27:23;4.13;;;3.17;;
24619;SDS011;12763;55.802;37.404;2023-07-29T00:29:49;5.00;;;3.20;;
24619;SDS011;12763;55.802;37.404;2023-07-29T00:32:15;6.57;;;3.25;;
24619;SDS011;12763;55.802;37.404;2023-07-29T00:34:41;5.63;;;3.03;;
24619;SDS011;12763;55.802;37.404;2023-07-29T00:37:06;3.88;;;2.92;;
24619;SDS011;12763;55.802;37.404;2023-07-29T00:39:33;8.30;;;2.80;;
24619;SDS011;12763;55.802;37.404;2023-07-29T00:41:59;6.07;;;3.20;;
24619;SDS011;12763;55.802;37.404;2023-07-29T00:44:24;8.48;;;3.28;;
24619;SDS011;12763;55.802;37.404;2023-07-29T00:46:52;5.18;;;2.63;;
24619;SDS011;12763;55.802;37.404;2023-07-29T00:49:20;5.20;;;2.95;;
24619;SDS011;12763;55.802;37.404;2023-07-29T00:51:46;9.43;;;2.88;;
24619;SDS011;12763;55.802;37.404;2023-07-29T00:54:13;6.65;;;3.10;;
24619;SDS011;12763;55.802;37.404;2023-07-29T00:56:40;5.05;;;3.10;;
24619;SDS011;12763;55.802;37.404;2023-07-29T00:59:06;6.55;;;2.97;;
24619;SDS011;12763;55.802;37.404;2023-07-29T01:01:33;4.82;;;3.03;;
24619;SDS011;12763;55.802;37.404;2023-07-29T01:03:59;5.43;;;2.80;;
24619;SDS011;12763;55.802;37.404;2023-07-29T01:09:14;9.82;;;3.10;;
24619;SDS011;12763;55.802;37.404;2023-07-29T01:17:52;4.65;;;2.78;;
24619;SDS011;12763;55.802;37.404;2023-07-29T01:20:21;8.07;;;2.92;;
24619;SDS011;12763;55.802;37.404;2023-07-29T01:22:50;3.47;;;2.78;;
24619;SDS011;12763;55.802;37.404;2023-07-29T01:25:16;3.63;;;3.00;;
24619;SDS011;12763;55.802;37.404;2023-07-29T01:27:45;4.75;;;2.78;;
24619;SDS011;12763;55.802;37.404;2023-07-29T01:30:12;4.00;;;2.97;;
24619;SDS011;12763;55.802;37.404;2023-07-29T01:32:54;4.82;;;3.08;;
24619;SDS011;12763;55.802;37.404;2023-07-29T01:35:25;4.75;;;3.10;;
24619;SDS011;12763;55.802;37.404;2023-07-29T01:38:05;3.53;;;3.17;;
24619;SDS011;12763;55.802;37.404;2023-07-29T01:40:43;3.72;;;3.10;;
24619;SDS011;12763;55.802;37.404;2023-07-29T01:43:10;6.10;;;3.60;;
24619;SDS011;12763;55.802;37.404;2023-07-29T01:45:37;3.30;;;2.85;;
24619;SDS011;12763;55.802;37.404;2023-07-29T01:48:04;3.60;;;3.25;;
24619;SDS011;12763;55.802;37.404;2023-07-29T01:50:31;6.78;;;3.20;;
24619;SDS011;12763;55.802;37.404;2023-07-29T01:53:00;4.55;;;3.28;;
24619;SDS011;12763;55.802;37.404;2023-07-29T01:55:26;6.13;;;3.40;;
24619;SDS011;12763;55.802;37.404;2023-07-29T01:57:53;4.00;;;3.28;;
24619;SDS011;12763;55.802;37.404;2023-07-29T02:00:23;5.07;;;3.40;;
24619;SDS011;12763;55.802;37.404;2023-07-29T02:02:49;5.15;;;3.58;;
24619;SDS011;12763;55.802;37.404;2023-07-29T02:05:15;6.80;;;3.47;;
24619;SDS011;12763;55.802;37.404;2023-07-29T02:07:41;5.15;;;3.40;;
24619;SDS011;12763;55.802;37.404;2023-07-29T02:10:07;3.90;;;3.42;;
24619;SDS011;12763;55.802;37.404;2023-07-29T02:12:34;4.82;;;3.15;;
24619;SDS011;12763;55.802;37.404;2023-07-29T02:15:02;4.50;;;3.60;;
24619;SDS011;12763;55.802;37.404;2023-07-29T02:17:31;6.82;;;3.63;;
24619;SDS011;12763;55.802;37.404;2023-07-29T02:19:56;8.00;;;3.92;;
24619;SDS011;12763;55.802;37.404;2023-07-29T02:22:22;6.07;;;3.85;;
24619;SDS011;12763;55.802;37.404;2023-07-29T02:24:48;6.18;;;3.28;;
24619;SDS011;12763;55.802;37.404;2023-07-29T02:27:14;5.15;;;3.78;;
24619;SDS011;12763;55.802;37.404;2023-07-29T02:29:41;8.40;;;4.07;;
24619;SDS011;12763;55.802;37.404;2023-07-29T02:32:07;8.00;;;3.47;;
24619;SDS011;12763;55.802;37.404;2023-07-29T02:34:33;9.25;;;4.03;;
24619;SDS011;12763;55.802;37.404;2023-07-29T02:37:00;4.53;;;3.33;;
24619;SDS011;12763;55.802;37.404;2023-07-29T02:39:25;12.68;;;4.68;;
24619;SDS011;12763;55.802;37.404;2023-07-29T02:41:51;6.72;;;3.60;;
24619;SDS011;12763;55.802;37.404;2023-07-29T02:44:17;7.90;;;4.10;;
24619;SDS011;12763;55.802;37.404;2023-07-29T02:46:44;6.10;;;3.80;;
24619;SDS011;12763;55.802;37.404;2023-07-29T02:49:10;15.07;;;4.25;;
24619;SDS011;12763;55.802;37.404;2023-07-29T02:51:36;7.25;;;4.35;;
24619;SDS011;12763;55.802;37.404;2023-07-29T02:54:02;6.95;;;4.05;;
24619;SDS011;12763;55.802;37.404;2023-07-29T02:56:28;7.07;;;4.22;;
24619;SDS011;12763;55.802;37.404;2023-07-29T02:58:56;6.10;;;4.13;;
24619;SDS011;12763;55.802;37.404;2023-07-29T03:01:22;7.30;;;4.28;;
24619;SDS011;12763;55.802;37.404;2023-07-29T03:03:50;5.28;;;4.10;;
24619;SDS011;12763;55.802;37.404;2023-07-29T03:06:16;8.35;;;3.72;;
24619;SDS011;12763;55.802;37.404;2023-07-29T03:08:42;6.75;;;4.20;;
24619;SDS011;12763;55.802;37.404;2023-07-29T03:11:09;6.20;;;3.92;;
24619;SDS011;12763;55.802;37.404;2023-07-29T03:13:37;5.45;;;3.95;;
24619;SDS011;12763;55.802;37.404;2023-07-29T03:16:07;4.38;;;3.65;;
24619;SDS011;12763;55.802;37.404;2023-07-29T03:18:33;5.00;;;3.38;;
24619;SDS011;12763;55.802;37.404;2023-07-29T03:21:00;5.95;;;3.60;;
24619;SDS011;12763;55.802;37.404;2023-07-29T03:23:27;6.00;;;3.75;;
24619;SDS011;12763;55.802;37.404;2023-07-29T03:25:57;5.60;;;4.07;;
24619;SDS011;12763;55.802;37.404;2023-07-29T03:28:28;6.72;;;4.38;;
24619;SDS011;12763;55.802;37.404;2023-07-29T03:30:55;5.53;;;3.90;;
24619;SDS011;12763;55.802;37.404;2023-07-29T03:33:22;5.53;;;4.05;;
24619;SDS011;12763;55.802;37.404;2023-07-29T03:35:48;7.18;;;3.63;;
24619;SDS011;12763;55.802;37.404;2023-07-29T03:38:14;11.45;;;4.22;;
24619;SDS011;12763;55.802;37.404;2023-07-29T03:40:41;7.68;;;4.10;;
24619;SDS011;12763;55.802;37.404;2023-07-29T03:43:07;6.30;;;3.95;;
24619;SDS011;12763;55.802;37.404;2023-07-29T03:45:34;4.30;;;3.42;;
24619;SDS011;12763;55.802;37.404;2023-07-29T03:48:01;8.35;;;3.53;;
24619;SDS011;12763;55.802;37.404;2023-07-29T03:50:29;9.10;;;4.50;;
24619;SDS011;12763;55.802;37.404;2023-07-29T03:52:56;4.57;;;3.97;;
24619;SDS011;12763;55.802;37.404;2023-07-29T03:55:22;5.55;;;4.53;;
24619;SDS011;12763;55.802;37.404;2023-07-29T03:57:48;5.30;;;3.83;;
24619;SDS011;12763;55.802;37.404;2023-07-29T04:00:14;4.10;;;3.40;;
24619;SDS011;12763;55.802;37.404;2023-07-29T04:02:47;4.63;;;3.60;;
24619;SDS011;12763;55.802;37.404;2023-07-29T04:05:13;5.78;;;3.72;;
24619;SDS011;12763;55.802;37.404;2023-07-29T04:07:40;5.05;;;3.72;;
24619;SDS011;12763;55.802;37.404;2023-07-29T04:10:06;6.05;;;3.90;;
24619;SDS011;12763;55.802;37.404;2023-07-29T04:12:33;5.25;;;3.40;;
24619;SDS011;12763;55.802;37.404;2023-07-29T04:14:59;6.07;;;3.95;;
24619;SDS011;12763;55.802;37.404;2023-07-29T04:17:25;6.35;;;3.92;;
24619;SDS011;12763;55.802;37.404;2023-07-29T04:19:51;8.35;;;3.92;;
24619;SDS011;12763;55.802;37.404;2023-07-29T04:22:19;6.70;;;3.70;;
24619;SDS011;12763;55.802;37.404;2023-07-29T04:24:45;4.43;;;3.50;;
24619;SDS011;12763;55.802;37.404;2023-07-29T04:27:11;4.65;;;3.35;;
24619;SDS011;12763;55.802;37.404;2023-07-29T04:29:37;7.50;;;3.75;;
24619;SDS011;12763;55.802;37.404;2023-07-29T04:32:03;9.30;;;3.67;;
24619;SDS011;12763;55.802;37.404;2023-07-29T04:34:30;5.60;;;3.75;;
24619;SDS011;12763;55.802;37.404;2023-07-29T04:36:57;4.90;;;3.92;;
24619;SDS011;12763;55.802;37.404;2023-07-29T04:39:23;7.60;;;3.42;;
24619;SDS011;12763;55.802;37.404;2023-07-29T04:41:49;5.60;;;3.63;;
24619;SDS011;12763;55.802;37.404;2023-07-29T04:44:15;7.35;;;4.13;;
24619;SDS011;12763;55.802;37.404;2023-07-29T04:46:41;8.68;;;4.20;;
24619;SDS011;12763;55.802;37.404;2023-07-29T04:49:07;10.93;;;4.75;;
24619;SDS011;12763;55.802;37.404;2023-07-29T04:51:33;8.23;;;3.97;;
24619;SDS011;12763;55.802;37.404;2023-07-29T04:53:59;6.32;;;4.20;;
24619;SDS011;12763;55.802;37.404;2023-07-29T04:56:25;5.43;;;3.80;;
24619;SDS011;12763;55.802;37.404;2023-07-29T04:58:51;6.75;;;3.60;;
24619;SDS011;12763;55.802;37.404;2023-07-29T05:01:18;5.40;;;4.03;;
24619;SDS011;12763;55.802;37.404;2023-07-29T05:03:44;7.05;;;4.30;;
24619;SDS011;12763;55.802;37.404;2023-07-29T05:06:11;7.70;;;3.95;;
24619;SDS011;12763;55.802;37.404;2023-07-29T05:08:37;4.80;;;3.75;;
24619;SDS011;12763;55.802;37.404;2023-07-29T05:11:03;8.27;;;3.83;;
24619;SDS011;12763;55.802;37.404;2023-07-29T05:13:29;7.05;;;4.32;;
24619;SDS011;12763;55.802;37.404;2023-07-29T05:15:55;6.95;;;4.03;;
24619;SDS011;12763;55.802;37.404;2023-07-29T05:18:22;6.53;;;4.10;;
24619;SDS011;12763;55.802;37.404;2023-07-29T05:20:49;7.07;;;3.90;;
24619;SDS011;12763;55.802;37.404;2023-07-29T05:23:15;7.57;;;4.15;;
24619;SDS011;12763;55.802;37.404;2023-07-29T05:25:41;7.57;;;4.85;;
24619;SDS011;12763;55.802;37.404;2023-07-29T05:28:07;6.47;;;3.97;;
24619;SDS011;12763;55.802;37.404;2023-07-29T05:30:33;6.65;;;4.18;;
24619;SDS011;12763;55.802;37.404;2023-07-29T05:33:03;6.63;;;4.03;;
24619;SDS011;12763;55.802;37.404;2023-07-29T05:35:39;9.50;;;4.18;;
24619;SDS011;12763;55.802;37.404;2023-07-29T05:38:06;4.53;;;3.75;;
24619;SDS011;12763;55.802;37.404;2023-07-29T05:40:34;6.38;;;4.45;;
24619;SDS011;12763;55.802;37.404;2023-07-29T05:43:00;4.82;;;3.88;;
24619;SDS011;12763;55.802;37.404;2023-07-29T05:45:27;7.47;;;3.75;;
24619;SDS011;12763;55.802;37.404;2023-07-29T05:47:53;4.38;;;3.50;;
24619;SDS011;12763;55.802;37.404;2023-07-29T05:50:19;7.85;;;4.05;;
24619;SDS011;12763;55.802;37.404;2023-07-29T05:52:46;4.00;;;3.50;;
24619;SDS011;12763;55.802;37.404;2023-07-29T05:55:12;6.57;;;4.28;;
24619;SDS011;12763;55.802;37.404;2023-07-29T05:57:39;4.07;;;3.53;;
24619;SDS011;12763;55.802;37.404;2023-07-29T06:00:07;4.50;;;3.75;;
24619;SDS011;12763;55.802;37.404;2023-07-29T06:02:39;5.63;;;3.47;;
24619;SDS011;12763;55.802;37.404;2023-07-29T06:05:12;4.65;;;3.30;;
24619;SDS011;12763;55.802;37.404;2023-07-29T06:07:38;6.88;;;4.25;;
24619;SDS011;12763;55.802;37.404;2023-07-29T06:10:09;7.03;;;3.72;;
24619;SDS011;12763;55.802;37.404;2023-07-29T06:12:39;4.80;;;3.60;;
24619;SDS011;12763;55.802;37.404;2023-07-29T06:15:05;5.13;;;3.72;;
24619;SDS011;12763;55.802;37.404;2023-07-29T06:17:31;5.47;;;3.33;;
24619;SDS011;12763;55.802;37.404;2023-07-29T06:19:57;8.85;;;3.83;;
24619;SDS011;12763;55.802;37.404;2023-07-29T06:22:23;5.47;;;3.85;;
24619;SDS011;12763;55.802;37.404;2023-07-29T06:24:49;6.38;;;3.70;;
24619;SDS011;12763;55.802;37.404;2023-07-29T06:27:15;8.43;;;3.97;;
24619;SDS011;12763;55.802;37.404;2023-07-29T06:29:40;4.07;;;3.35;;
24619;SDS011;12763;55.802;37.404;2023-07-29T06:32:06;7.75;;;3.90;;
24619;SDS011;12763;55.802;37.404;2023-07-29T06:34:32;6.40;;;3.72;;
24619;SDS011;12763;55.802;37.404;2023-07-29T06:36:58;4.32;;;3.92;;
24619;SDS011;12763;55.802;37.404;2023-07-29T06:39:24;5.40;;;4.00;;
24619;SDS011;12763;55.802;37.404;2023-07-29T06:41:50;5.47;;;3.75;;
24619;SDS011;12763;55.802;37.404;2023-07-29T06:44:17;6.78;;;3.97;;
24619;SDS011;12763;55.802;37.404;2023-07-29T06:46:43;4.25;;;3.35;;
24619;SDS011;12763;55.802;37.404;2023-07-29T06:49:09;7.43;;;3.42;;
24619;SDS011;12763;55.802;37.404;2023-07-29T06:51:35;9.00;;;4.20;;
24619;SDS011;12763;55.802;37.404;2023-07-29T06:54:02;7.63;;;3.90;;
24619;SDS011;12763;55.802;37.404;2023-07-29T06:56:28;6.65;;;3.65;;
24619;SDS011;12763;55.802;37.404;2023-07-29T06:58:54;5.82;;;3.90;;
24619;SDS011;12763;55.802;37.404;2023-07-29T07:01:20;7.20;;;3.92;;
24619;SDS011;12763;55.802;37.404;2023-07-29T07:03:47;7.22;;;3.90;;
24619;SDS011;12763;55.802;37.404;2023-07-29T07:06:13;10.05;;;4.63;;
24619;SDS011;12763;55.802;37.404;2023-07-29T07:08:39;9.98;;;3.80;;
24619;SDS011;12763;55.802;37.404;2023-07-29T07:11:06;6.13;;;3.92;;
24619;SDS011;12763;55.802;37.404;2023-07-29T07:13:32;4.72;;;3.97;;
24619;SDS011;12763;55.802;37.404;2023-07-29T07:15:58;6.20;;;3.72;;
24619;SDS011;12763;55.802;37.404;2023-07-29T07:18:24;9.82;;;4.28;;
24619;SDS011;12763;55.802;37.404;2023-07-29T07:20:50;8.73;;;4.30;;
24619;SDS011;12763;55.802;37.404;2023-07-29T07:23:17;5.30;;;3.97;;
24619;SDS011;12763;55.802;37.404;2023-07-29T07:25:44;9.77;;;4.93;;
24619;SDS011;12763;55.802;37.404;2023-07-29T07:28:10;5.45;;;3.70;;
24619;SDS011;12763;55.802;37.404;2023-07-29T07:30:39;5.75;;;3.78;;
24619;SDS011;12763;55.802;37.404;2023-07-29T07:33:08;5.85;;;4.47;;
24619;SDS011;12763;55.802;37.404;2023-07-29T07:35:34;8.05;;;4.00;;
24619;SDS011;12763;55.802;37.404;2023-07-29T07:38:00;7.50;;;4.07;;
24619;SDS011;12763;55.802;37.404;2023-07-29T07:40:33;6.90;;;4.55;;
24619;SDS011;12763;55.802;37.404;2023-07-29T07:42:59;5.18;;;4.10;;
24619;SDS011;12763;55.802;37.404;2023-07-29T07:45:25;5.63;;;3.45;;
24619;SDS011;12763;55.802;37.404;2023-07-29T07:47:53;7.68;;;4.13;;
24619;SDS011;12763;55.802;37.404;2023-07-29T07:50:19;7.47;;;4.00;;
24619;SDS011;12763;55.802;37.404;2023-07-29T07:52:46;5.65;;;4.25;;
24619;SDS011;12763;55.802;37.404;2023-07-29T07:55:12;5.32;;;3.65;;
24619;SDS011;12763;55.802;37.404;2023-07-29T07:57:37;5.50;;;3.85;;
24619;SDS011;12763;55.802;37.404;2023-07-29T08:00:03;6.88;;;4.53;;
24619;SDS011;12763;55.802;37.404;2023-07-29T08:02:39;7.05;;;4.03;;
24619;SDS011;12763;55.802;37.404;2023-07-29T08:05:05;5.28;;;3.58;;
24619;SDS011;12763;55.802;37.404;2023-07-29T08:07:31;4.90;;;3.85;;
24619;SDS011;12763;55.802;37.404;2023-07-29T08:09:57;5.85;;;3.97;;
24619;SDS011;12763;55.802;37.404;2023-07-29T08:12:22;5.85;;;3.45;;
24619;SDS011;12763;55.802;37.404;2023-07-29T08:14:48;5.60;;;3.47;;
24619;SDS011;12763;55.802;37.404;2023-07-29T08:17:14;5.07;;;4.07;;
24619;SDS011;12763;55.802;37.404;2023-07-29T08:19:40;6.43;;;3.40;;
24619;SDS011;12763;55.802;37.404;2023-07-29T08:22:06;5.72;;;3.67;;
24619;SDS011;12763;55.802;37.404;2023-07-29T08:24:31;4.88;;;3.38;;
24619;SDS011;12763;55.802;37.404;2023-07-29T08:26:57;4.30;;;2.97;;
24619;SDS011;12763;55.802;37.404;2023-07-29T08:29:23;8.80;;;3.30;;
24619;SDS011;12763;55.802;37.404;2023-07-29T08:31:49;6.20;;;3.70;;
24619;SDS011;12763;55.802;37.404;2023-07-29T08:34:17;6.20;;;3.30;;
24619;SDS011;12763;55.802;37.404;2023-07-29T08:36:43;6.47;;;4.07;;
24619;SDS011;12763;55.802;37.404;2023-07-29T08:39:08;5.38;;;3.10;;
24619;SDS011;12763;55.802;37.404;2023-07-29T08:41:45;4.07;;;3.10;;
24619;SDS011;12763;55.802;37.404;2023-07-29T08:44:18;3.85;;;3.08;;
24619;SDS011;12763;55.802;37.404;2023-07-29T08:46:50;4.68;;;3.35;;
24619;SDS011;12763;55.802;37.404;2023-07-29T08:49:18;6.35;;;3.20;;
24619;SDS011;12763;55.802;37.404;2023-07-29T08:51:48;6.05;;;3.35;;
24619;SDS011;12763;55.802;37.404;2023-07-29T08:54:16;5.50;;;3.38;;
24619;SDS011;12763;55.802;37.404;2023-07-29T08:56:42;5.03;;;3.60;;
24619;SDS011;12763;55.802;37.404;2023-07-29T08:59:09;3.85;;;3.35;;
24619;SDS011;12763;55.802;37.404;2023-07-29T09:01:39;9.77;;;4.00;;
24619;SDS011;12763;55.802;37.404;2023-07-29T09:04:05;5.80;;;3.55;;
24619;SDS011;12763;55.802;37.404;2023-07-29T09:06:31;6.93;;;4.35;;
24619;SDS011;12763;55.802;37.404;2023-07-29T09:08:58;6.32;;;4.55;;
24619;SDS011;12763;55.802;37.404;2023-07-29T09:11:25;4.90;;;3.33;;
24619;SDS011;12763;55.802;37.404;2023-07-29T09:13:51;7.15;;;3.60;;
24619;SDS011;12763;55.802;37.404;2023-07-29T09:16:19;4.45;;;3.53;;
24619;SDS011;12763;55.802;37.404;2023-07-29T09:18:50;5.57;;;3.58;;
24619;SDS011;12763;55.802;37.404;2023-07-29T09:21:17;5.63;;;3.78;;
24619;SDS011;12763;55.802;37.404;2023-07-29T09:23:48;6.10;;;3.92;;
24619;SDS011;12763;55.802;37.404;2023-07-29T09:26:25;5.00;;;3.50;;
24619;SDS011;12763;55.802;37.404;2023-07-29T09:28:56;7.35;;;3.55;;
24619;SDS011;12763;55.802;37.404;2023-07-29T09:31:24;8.18;;;4.30;;
24619;SDS011;12763;55.802;37.404;2023-07-29T09:34:00;5.35;;;3.90;;
24619;SDS011;12763;55.802;37.404;2023-07-29T09:36:29;9.65;;;4.07;;
24619;SDS011;12763;55.802;37.404;2023-07-29T09:38:56;5.20;;;3.78;;
24619;SDS011;12763;55.802;37.404;2023-07-29T09:41:24;4.95;;;3.53;;
24619;SDS011;12763;55.802;37.404;2023-07-29T09:44:01;5.25;;;3.47;;
24619;SDS011;12763;55.802;37.404;2023-07-29T09:46:33;8.10;;;3.67;;
24619;SDS011;12763;55.802;37.404;2023-07-29T09:49:02;5.82;;;4.38;;
24619;SDS011;12763;55.802;37.404;2023-07-29T09:51:32;7.90;;;4.28;;
24619;SDS011;12763;55.802;37.404;2023-07-29T09:54:05;8.07;;;3.90;;
24619;SDS011;12763;55.802;37.404;2023-07-29T09:56:31;6.35;;;3.75;;
24619;SDS011;12763;55.802;37.404;2023-07-29T09:58:57;6.45;;;4.35;;
24619;SDS011;12763;55.802;37.404;2023-07-29T10:01:23;4.47;;;3.60;;
24619;SDS011;12763;55.802;37.404;2023-07-29T10:03:49;5.35;;;3.97;;
24619;SDS011;12763;55.802;37.404;2023-07-29T10:06:15;4.50;;;3.65;;
24619;SDS011;12763;55.802;37.404;2023-07-29T10:08:43;5.03;;;3.78;;
24619;SDS011;12763;55.802;37.404;2023-07-29T10:11:10;5.55;;;3.47;;
24619;SDS011;12763;55.802;37.404;2023-07-29T10:13:37;4.78;;;3.63;;
24619;SDS011;12763;55.802;37.404;2023-07-29T10:16:03;5.55;;;4.20;;
24619;SDS011;12763;55.802;37.404;2023-07-29T10:18:31;6.35;;;4.28;;
24619;SDS011;12763;55.802;37.404;2023-07-29T10:20:59;5.72;;;3.80;;
24619;SDS011;12763;55.802;37.404;2023-07-29T10:23:27;5.38;;;3.70;;
24619;SDS011;12763;55.802;37.404;2023-07-29T10:26:03;6.55;;;3.58;;
24619;SDS011;12763;55.802;37.404;2023-07-29T10:28:31;7.53;;;4.07;;
24619;SDS011;12763;55.802;37.404;2023-07-29T10:30:58;6.03;;;3.80;;
24619;SDS011;12763;55.802;37.404;2023-07-29T10:33:25;6.20;;;4.45;;
24619;SDS011;12763;55.802;37.404;2023-07-29T10:35:53;5.53;;;3.92;;
24619;SDS011;12763;55.802;37.404;2023-07-29T10:38:22;5.05;;;3.97;;
24619;SDS011;12763;55.802;37.404;2023-07-29T10:40:56;5.57;;;4.05;;
24619;SDS011;12763;55.802;37.404;2023-07-29T10:43:26;7.20;;;4.80;;
24619;SDS011;12763;55.802;37.404;2023-07-29T10:45:57;4.72;;;3.13;;
24619;SDS011;12763;55.802;37.404;2023-07-29T10:54:08;6.07;;;4.13;;
24619;SDS011;12763;55.802;37.404;2023-07-29T10:56:37;6.25;;;4.22;;
24619;SDS011;12763;55.802;37.404;2023-07-29T11:01:40;5.65;;;3.90;;
24619;SDS011;12763;55.802;37.404;2023-07-29T11:17:39;6.15;;;4.28;;
24619;SDS011;12763;55.802;37.404;2023-07-29T11:20:26;7.25;;;4.20;;
24619;SDS011;12763;55.802;37.404;2023-07-29T11:22:54;5.55;;;4.07;;
24619;SDS011;12763;55.802;37.404;2023-07-29T11:25:21;6.43;;;4.38;;
24619;SDS011;12763;55.802;37.404;2023-07-29T11:27:49;5.88;;;4.50;;
24619;SDS011;12763;55.802;37.404;2023-07-29T11:30:17;8.85;;;3.63;;
24619;SDS011;12763;55.802;37.404;2023-07-29T11:32:43;6.82;;;4.50;;
24619;SDS011;12763;55.802;37.404;2023-07-29T11:35:14;8.60;;;4.50;;
24619;SDS011;12763;55.802;37.404;2023-07-29T11:37:43;10.32;;;4.80;;
24619;SDS011;12763;55.802;37.404;2023-07-29T11:42:43;5.60;;;4.40;;
24619;SDS011;12763;55.802;37.404;2023-07-29T11:45:10;5.30;;;4.15;;
24619;SDS011;12763;55.802;37.404;2023-07-29T11:47:36;7.53;;;4.25;;
24619;SDS011;12763;55.802;37.404;2023-07-29T11:50:07;4.47;;;2.47;;
24619;SDS011;12763;55.802;37.404;2023-07-29T11:52:40;6.43;;;2.90;;
24619;SDS011;12763;55.802;37.404;2023-07-29T11:55:07;4.20;;;2.53;;
24619;SDS011;12763;55.802;37.404;2023-07-29T11:57:35;6.22;;;2.90;;
24619;SDS011;12763;55.802;37.404;2023-07-29T12:00:05;5.00;;;2.72;;
24619;SDS011;12763;55.802;37.404;2023-07-29T12:02:39;6.18;;;3.13;;
24619;SDS011;12763;55.802;37.404;2023-07-29T12:05:06;3.17;;;2.28;;
24619;SDS011;12763;55.802;37.404;2023-07-29T12:07:34;3.85;;;2.58;;
24619;SDS011;12763;55.802;37.404;2023-07-29T12:10:04;5.13;;;2.42;;
24619;SDS011;12763;55.802;37.404;2023-07-29T12:12:31;3.13;;;2.08;;
24619;SDS011;12763;55.802;37.404;2023-07-29T12:14:57;4.75;;;2.53;;
24619;SDS011;12763;55.802;37.404;2023-07-29T12:17:23;3.83;;;2.40;;
24619;SDS011;12763;55.802;37.404;2023-07-29T12:19:49;3.88;;;2.50;;
24619;SDS011;12763;55.802;37.404;2023-07-29T12:22:19;4.45;;;2.15;;
24619;SDS011;12763;55.802;37.404;2023-07-29T12:24:45;4.78;;;2.55;;
24619;SDS011;12763;55.802;37.404;2023-07-29T12:27:12;5.38;;;2.83;;
24619;SDS011;12763;55.802;37.404;2023-07-29T12:29:42;3.47;;;2.78;;
24619;SDS011;12763;55.802;37.404;2023-07-29T12:32:09;4.95;;;2.90;;
24619;SDS011;12763;55.802;37.404;2023-07-29T12:34:36;4.03;;;2.60;;
24619;SDS011;12763;55.802;37.404;2023-07-29T12:37:05;5.18;;;2.83;;
24619;SDS011;12763;55.802;37.404;2023-07-29T12:39:33;3.72;;;2.70;;
24619;SDS011;12763;55.802;37.404;2023-07-29T12:42:01;4.90;;;2.75;;
24619;SDS011;12763;55.802;37.404;2023-07-29T12:44:31;4.45;;;2.40;;
24619;SDS011;12763;55.802;37.404;2023-07-29T12:47:02;3.95;;;2.70;;
24619;SDS011;12763;55.802;37.404;2023-07-29T12:49:29;5.15;;;2.72;;
24619;SDS011;12763;55.802;37.404;2023-07-29T12:51:56;5.68;;;2.58;;
24619;SDS011;12763;55.802;37.404;2023-07-29T12:54:22;4.22;;;2.65;;
24619;SDS011;12763;55.802;37.404;2023-07-29T12:56:48;5.47;;;2.55;;
24619;SDS011;12763;55.802;37.404;2023-07-29T12:59:14;5.22;;;2.65;;
24619;SDS011;12763;55.802;37.404;2023-07-29T13:01:40;6.70;;;2.97;;
24619;SDS011;12763;55.802;37.404;2023-07-29T13:04:06;2.78;;;2.28;;
24619;SDS011;12763;55.802;37.404;2023-07-29T13:06:32;6.57;;;2.75;;
24619;SDS011;12763;55.802;37.404;2023-07-29T13:08:58;4.68;;;3.08;;
24619;SDS011;12763;55.802;37.404;2023-07-29T13:11:24;4.93;;;2.63;;
24619;SDS011;12763;55.802;37.404;2023-07-29T13:13:51;6.28;;;2.80;;
24619;SDS011;12763;55.802;37.404;2023-07-29T13:16:17;5.10;;;3.40;;
24619;SDS011;12763;55.802;37.404;2023-07-29T13:18:44;6.60;;;2.92;;
24619;SDS011;12763;55.802;37.404;2023-07-29T13:21:10;5.22;;;3.28;;
24619;SDS011;12763;55.802;37.404;2023-07-29T13:23:36;6.28;;;3.35;;
24619;SDS011;12763;55.802;37.404;2023-07-29T13:26:02;7.20;;;3.15;;
24619;SDS011;12763;55.802;37.404;2023-07-29T13:28:28;6.75;;;3.03;;
24619;SDS011;12763;55.802;37.404;2023-07-29T13:30:54;8.25;;;3.47;;
24619;SDS011;12763;55.802;37.404;2023-07-29T13:33:20;4.88;;;3.08;;
24619;SDS011;12763;55.802;37.404;2023-07-29T13:35:46;7.63;;;3.05;;
24619;SDS011;12763;55.802;37.404;2023-07-29T13:38:12;4.88;;;3.15;;
24619;SDS011;12763;55.802;37.404;2023-07-29T13:40:38;6.47;;;3.53;;
24619;SDS011;12763;55.802;37.404;2023-07-29T13:43:04;4.82;;;2.95;;
24619;SDS011;12763;55.802;37.404;2023-07-29T13:45:30;6.50;;;3.08;;
24619;SDS011;12763;55.802;37.404;2023-07-29T13:47:56;6.25;;;3.30;;
24619;SDS011;12763;55.802;37.404;2023-07-29T13:50:22;7.25;;;3.05;;
24619;SDS011;12763;55.802;37.404;2023-07-29T13:52:48;5.95;;;3.20;;
24619;SDS011;12763;55.802;37.404;2023-07-29T13:55:14;3.20;;;2.88;;
24619;SDS011;12763;55.802;37.404;2023-07-29T13:57:40;6.43;;;3.00;;
24619;SDS011;12763;55.802;37.404;2023-07-29T14:00:07;4.30;;;3.00;;
24619;SDS011;12763;55.802;37.404;2023-07-29T14:02:41;6.72;;;2.90;;
24619;SDS011;12763;55.802;37.404;2023-07-29T14:05:08;7.80;;;3.28;;
24619;SDS011;12763;55.802;37.404;2023-07-29T14:07:34;5.57;;;3.10;;
24619;SDS011;12763;55.802;37.404;2023-07-29T14:10:00;6.07;;;3.05;;
24619;SDS011;12763;55.802;37.404;2023-07-29T14:12:29;6.03;;;2.88;;
24619;SDS011;12763;55.802;37.404;2023-07-29T14:14:55;4.30;;;2.72;;
24619;SDS011;12763;55.802;37.404;2023-07-29T14:17:24;6.28;;;3.17;;
24619;SDS011;12763;55.802;37.404;2023-07-29T14:19:50;3.47;;;2.65;;
24619;SDS011;12763;55.802;37.404;2023-07-29T14:22:16;8.60;;;3.10;;
24619;SDS011;12763;55.802;37.404;2023-07-29T14:24:41;4.32;;;2.90;;
24619;SDS011;12763;55.802;37.404;2023-07-29T14:27:07;5.35;;;2.90;;
24619;SDS011;12763;55.802;37.404;2023-07-29T14:29:33;5.25;;;3.15;;
24619;SDS011;12763;55.802;37.404;2023-07-29T14:31:59;4.03;;;2.83;;
24619;SDS011;12763;55.802;37.404;2023-07-29T14:34:25;4.95;;;2.97;;
24619;SDS011;12763;55.802;37.404;2023-07-29T14:36:52;5.82;;;3.00;;
24619;SDS011;12763;55.802;37.404;2023-07-29T14:39:18;7.05;;;3.40;;
24619;SDS011;12763;55.802;37.404;2023-07-29T14:41:43;7.25;;;3.03;;
24619;SDS011;12763;55.802;37.404;2023-07-29T14:44:09;8.05;;;3.00;;
24619;SDS011;12763;55.802;37.404;2023-07-29T14:46:35;6.22;;;2.80;;
24619;SDS011;12763;55.802;37.404;2023-07-29T14:49:01;6.47;;;3.30;;
24619;SDS011;12763;55.802;37.404;2023-07-29T14:51:27;8.63;;;3.20;;
24619;SDS011;12763;55.802;37.404;2023-07-29T14:53:53;5.13;;;3.13;;
24619;SDS011;12763;55.802;37.404;2023-07-29T14:56:19;6.47;;;2.63;;
24619;SDS011;12763;55.802;37.404;2023-07-29T14:58:44;5.80;;;2.97;;
24619;SDS011;12763;55.802;37.404;2023-07-29T15:01:11;10.32;;;3.10;;
24619;SDS011;12763;55.802;37.404;2023-07-29T15:03:37;4.28;;;2.38;;
24619;SDS011;12763;55.802;37.404;2023-07-29T15:06:04;6.40;;;3.20;;